createdAt,value
2018-08-30T00:01:51.767Z,3.77
2018-08-30T00:04:20.120Z,4.95
2018-08-30T00:06:48.459Z,4.45
2018-08-30T00:09:16.771Z,6.03
2018-08-30T00:11:45.112Z,5.33
2018-08-30T00:14:13.432Z,6.08
2018-08-30T00:16:41.811Z,4.58
2018-08-30T00:19:10.196Z,3.27
2018-08-30T00:21:38.553Z,7.40
2018-08-30T00:24:06.914Z,5.35
2018-08-30T00:26:35.268Z,5.75
2018-08-30T00:29:03.696Z,4.20
2018-08-30T00:31:32.052Z,7.45
2018-08-30T00:34:00.397Z,4.72
2018-08-30T00:36:28.760Z,3.65
2018-08-30T00:38:57.119Z,5.42
2018-08-30T00:41:25.498Z,4.67
2018-08-30T00:43:53.839Z,4.83
2018-08-30T00:46:22.160Z,5.87
2018-08-30T00:48:50.516Z,5.03
2018-08-30T00:51:18.823Z,5.50
2018-08-30T00:53:47.165Z,6.12
2018-08-30T00:56:15.476Z,3.90
2018-08-30T00:58:43.831Z,3.90
2018-08-30T01:01:12.136Z,5.72
2018-08-30T01:03:40.492Z,5.28
2018-08-30T01:06:08.842Z,6.05
2018-08-30T01:08:37.215Z,4.47
2018-08-30T01:11:05.573Z,6.95
2018-08-30T01:13:33.936Z,5.00
2018-08-30T01:16:02.259Z,4.65
2018-08-30T01:18:30.680Z,4.80
2018-08-30T01:20:59.007Z,4.37
2018-08-30T01:23:27.404Z,3.98
2018-08-30T01:25:55.760Z,4.33
2018-08-30T01:28:24.120Z,4.12
2018-08-30T01:30:52.488Z,5.55
2018-08-30T01:33:20.868Z,4.12
2018-08-30T01:35:49.208Z,3.62
2018-08-30T01:38:17.660Z,4.03
2018-08-30T01:40:46.029Z,4.33
2018-08-30T01:43:14.388Z,4.03
2018-08-30T01:45:42.712Z,2.55
2018-08-30T01:48:11.088Z,2.92
2018-08-30T01:50:39.408Z,4.35
2018-08-30T01:53:07.852Z,2.12
2018-08-30T01:55:36.535Z,3.67
2018-08-30T01:58:04.935Z,3.52
2018-08-30T02:00:33.260Z,4.03
2018-08-30T02:03:01.629Z,2.67
2018-08-30T02:05:29.984Z,4.10
2018-08-30T02:07:58.344Z,4.05
2018-08-30T02:10:26.684Z,4.92
2018-08-30T02:12:55.061Z,3.17
2018-08-30T02:15:23.396Z,3.27
2018-08-30T02:17:51.752Z,3.80
2018-08-30T02:20:20.072Z,4.20
2018-08-30T02:22:48.436Z,11.88
2018-08-30T02:25:16.787Z,2.00
2018-08-30T02:27:45.148Z,3.72
2018-08-30T02:30:13.530Z,2.50
2018-08-30T02:32:41.889Z,4.30
2018-08-30T02:35:10.248Z,3.70
2018-08-30T02:37:38.638Z,5.30
2018-08-30T02:40:07.064Z,13.28
2018-08-30T02:42:35.412Z,4.95
2018-08-30T02:45:03.824Z,2.80
2018-08-30T02:47:32.139Z,3.45
2018-08-30T02:50:00.464Z,8.00
2018-08-30T02:52:29.004Z,5.10
2018-08-30T02:54:57.345Z,5.30
2018-08-30T02:57:25.708Z,3.17
2018-08-30T02:59:54.087Z,4.95
2018-08-30T03:02:22.440Z,4.03
2018-08-30T03:04:50.830Z,5.40
2018-08-30T03:07:19.157Z,6.00
2018-08-30T03:09:47.524Z,3.85
2018-08-30T03:12:15.856Z,4.92
2018-08-30T03:14:45.641Z,6.05
2018-08-30T03:17:13.975Z,3.37
2018-08-30T03:19:42.376Z,5.25
2018-08-30T03:22:10.748Z,4.40
2018-08-30T03:24:39.104Z,4.80
2018-08-30T03:27:07.497Z,5.92
2018-08-30T03:29:35.856Z,5.95
2018-08-30T03:32:04.197Z,8.15
2018-08-30T03:34:32.559Z,5.83
2018-08-30T03:37:00.900Z,7.62
2018-08-30T03:39:29.268Z,7.95
2018-08-30T03:41:57.597Z,6.35
2018-08-30T03:44:25.969Z,7.15
2018-08-30T03:46:54.347Z,8.25
2018-08-30T03:49:22.760Z,6.22
2018-08-30T03:51:51.111Z,8.80
2018-08-30T03:54:19.492Z,10.25
2018-08-30T03:56:47.837Z,6.80
2018-08-30T03:59:16.216Z,6.12
2018-08-30T04:01:44.572Z,5.80
2018-08-30T04:04:12.960Z,6.58
2018-08-30T04:06:41.308Z,9.68
2018-08-30T04:09:09.954Z,8.20
2018-08-30T04:11:38.296Z,5.72
2018-08-30T04:14:06.760Z,8.15
2018-08-30T04:16:35.108Z,7.83
2018-08-30T04:19:05.907Z,5.40
2018-08-30T04:21:34.964Z,6.05
2018-08-30T04:24:04.437Z,5.50
2018-08-30T04:26:32.779Z,8.70
2018-08-30T04:29:01.980Z,7.22
2018-08-30T04:31:30.511Z,6.75
2018-08-30T04:33:58.855Z,7.28
2018-08-30T04:36:27.192Z,6.30
2018-08-30T04:38:56.640Z,9.45
2018-08-30T04:41:24.959Z,8.28
2018-08-30T04:43:53.335Z,6.92
2018-08-30T04:46:21.684Z,7.25
2018-08-30T04:48:50.048Z,8.20
2018-08-30T04:51:18.376Z,6.40
2018-08-30T04:53:46.746Z,6.00
2018-08-30T04:56:15.072Z,5.60
2018-08-30T04:58:43.437Z,4.78
2018-08-30T05:01:11.769Z,4.97
2018-08-30T05:03:40.128Z,6.05
2018-08-30T05:06:08.452Z,5.70
2018-08-30T05:08:36.799Z,3.85
2018-08-30T05:11:05.380Z,5.92
2018-08-30T05:13:33.749Z,8.03
2018-08-30T05:16:02.126Z,9.93
2018-08-30T05:18:30.519Z,6.67
2018-08-30T05:20:58.880Z,5.85
2018-08-30T05:23:27.244Z,6.08
2018-08-30T05:25:55.608Z,7.25
2018-08-30T05:28:23.952Z,6.92
2018-08-30T05:30:52.308Z,6.12
2018-08-30T05:33:20.630Z,6.30
2018-08-30T05:35:49.160Z,5.53
2018-08-30T05:38:17.448Z,4.50
2018-08-30T05:40:45.819Z,4.65
2018-08-30T05:43:14.151Z,5.33
2018-08-30T05:45:42.996Z,5.05
2018-08-30T05:48:11.328Z,8.30
2018-08-30T05:50:39.700Z,5.97
2018-08-30T05:53:08.811Z,8.28
2018-08-30T05:55:37.207Z,5.97
2018-08-30T05:58:05.581Z,8.18
2018-08-30T06:00:33.936Z,6.75
2018-08-30T06:03:02.276Z,6.53
2018-08-30T06:05:30.640Z,6.35
2018-08-30T06:07:58.972Z,5.30
2018-08-30T06:10:27.344Z,9.10
2018-08-30T06:12:55.730Z,7.28
2018-08-30T06:15:24.052Z,4.58
2018-08-30T06:17:52.375Z,7.35
2018-08-30T06:20:20.735Z,7.67
2018-08-30T06:22:49.097Z,6.15
2018-08-30T06:25:17.499Z,5.55
2018-08-30T06:27:45.840Z,7.05
2018-08-30T06:30:14.208Z,7.53
2018-08-30T06:32:42.668Z,7.60
2018-08-30T06:35:11.054Z,7.45
2018-08-30T06:37:39.450Z,7.95
2018-08-30T06:40:07.864Z,7.03
2018-08-30T06:42:36.200Z,9.95
2018-08-30T06:45:04.608Z,6.85
2018-08-30T06:47:32.951Z,8.65
2018-08-30T06:50:01.316Z,6.33
2018-08-30T06:52:29.656Z,6.08
2018-08-30T06:54:58.061Z,10.95
2018-08-30T06:57:26.439Z,8.70
2018-08-30T06:59:54.815Z,8.63
2018-08-30T07:02:23.180Z,9.60
2018-08-30T07:04:51.582Z,9.45
2018-08-30T07:07:19.932Z,7.67
2018-08-30T07:09:48.295Z,9.00
2018-08-30T07:12:16.669Z,8.95
2018-08-30T07:14:45.080Z,7.85
2018-08-30T07:17:13.404Z,8.38
2018-08-30T07:19:41.758Z,10.60
2018-08-30T07:22:10.164Z,9.23
2018-08-30T07:24:38.486Z,10.78
2018-08-30T07:27:06.849Z,7.58
2018-08-30T07:29:35.176Z,8.30
2018-08-30T07:32:03.637Z,9.60
2018-08-30T07:34:31.990Z,8.55
2018-08-30T07:37:00.348Z,7.00
2018-08-30T07:39:28.668Z,12.70
2018-08-30T07:41:57.035Z,9.45
2018-08-30T07:44:25.490Z,6.47
2018-08-30T07:46:53.736Z,15.03
2018-08-30T07:49:22.068Z,8.10
2018-08-30T07:51:50.433Z,7.47
2018-08-30T07:54:18.762Z,9.20
2018-08-30T07:56:47.144Z,10.20
2018-08-30T07:59:15.458Z,6.25
2018-08-30T08:01:43.834Z,9.28
2018-08-30T08:04:12.165Z,7.70
2018-08-30T08:06:40.527Z,10.48
2018-08-30T08:09:09.920Z,7.70
2018-08-30T08:11:38.303Z,7.05
2018-08-30T08:14:06.988Z,6.40
2018-08-30T08:16:35.508Z,5.87
2018-08-30T08:19:03.910Z,5.72
2018-08-30T08:21:32.256Z,10.05
2018-08-30T08:24:00.634Z,6.65
2018-08-30T08:26:29.000Z,6.00
2018-08-30T08:28:57.338Z,7.65
2018-08-30T08:31:25.716Z,4.83
2018-08-30T08:33:54.051Z,5.08
2018-08-30T08:36:22.416Z,5.58
2018-08-30T08:38:50.758Z,4.28
2018-08-30T08:41:19.139Z,10.60
2018-08-30T08:43:47.483Z,8.43
2018-08-30T08:46:15.843Z,6.40
2018-08-30T08:48:44.188Z,7.05
2018-08-30T08:51:12.708Z,6.87
2018-08-30T08:53:40.986Z,6.15
2018-08-30T08:56:09.381Z,6.85
2018-08-30T08:58:37.759Z,5.60
2018-08-30T09:01:06.090Z,8.65
2018-08-30T09:03:34.497Z,6.37
2018-08-30T09:06:02.852Z,6.90
2018-08-30T09:08:31.228Z,10.85
2018-08-30T09:10:59.579Z,5.67
2018-08-30T09:13:27.948Z,5.78
2018-08-30T09:15:56.300Z,7.53
2018-08-30T09:18:24.733Z,8.08
2018-08-30T09:20:53.104Z,5.60
2018-08-30T09:23:21.581Z,6.97
2018-08-30T09:25:49.921Z,6.03
2018-08-30T09:28:18.295Z,6.87
2018-08-30T09:30:46.637Z,6.25
2018-08-30T09:33:14.991Z,8.80
2018-08-30T09:35:43.356Z,8.25
2018-08-30T09:38:11.776Z,10.05
2018-08-30T09:40:40.131Z,5.95
2018-08-30T09:43:08.627Z,6.10
2018-08-30T09:45:36.964Z,4.83
2018-08-30T09:48:05.441Z,6.17
2018-08-30T09:50:33.809Z,5.95
2018-08-30T09:53:02.190Z,6.10
2018-08-30T09:55:30.537Z,6.83
2018-08-30T09:57:58.960Z,7.17
2018-08-30T10:00:32.676Z,6.85
2018-08-30T10:03:01.053Z,8.83
2018-08-30T10:05:29.429Z,6.65
2018-08-30T10:07:57.816Z,5.78
2018-08-30T10:10:26.147Z,6.42
2018-08-30T10:12:54.526Z,8.23
2018-08-30T10:15:22.855Z,8.55
2018-08-30T10:17:51.232Z,9.23
2018-08-30T10:20:19.569Z,6.65
2018-08-30T10:22:47.961Z,6.10
2018-08-30T10:25:16.316Z,5.50
2018-08-30T10:27:44.688Z,6.65
2018-08-30T10:30:13.016Z,8.40
2018-08-30T10:32:41.369Z,7.47
2018-08-30T10:35:09.712Z,8.05
2018-08-30T10:37:38.084Z,6.40
2018-08-30T10:40:06.775Z,9.70
2018-08-30T10:42:35.136Z,7.87
2018-08-30T10:45:03.520Z,7.15
2018-08-30T10:47:31.878Z,7.05
2018-08-30T10:50:00.223Z,7.75
2018-08-30T10:52:28.608Z,8.40
2018-08-30T10:54:56.931Z,8.90
2018-08-30T10:57:25.297Z,8.28
2018-08-30T10:59:53.659Z,8.48
2018-08-30T11:02:22.563Z,8.08
2018-08-30T11:04:50.971Z,8.45
2018-08-30T11:07:19.364Z,7.50
2018-08-30T11:09:47.743Z,7.25
2018-08-30T11:12:16.088Z,7.05
2018-08-30T11:14:44.505Z,8.23
2018-08-30T11:17:12.867Z,9.28
2018-08-30T11:19:41.216Z,9.48
2018-08-30T11:22:09.580Z,8.98
2018-08-30T11:24:37.954Z,11.55
2018-08-30T11:27:06.313Z,10.80
2018-08-30T11:29:34.720Z,7.75
2018-08-30T11:32:03.063Z,6.17
2018-08-30T11:34:31.420Z,11.08
2018-08-30T11:36:59.756Z,11.93
2018-08-30T11:39:28.119Z,8.35
2018-08-30T11:41:56.440Z,10.18
2018-08-30T11:44:24.801Z,9.25
2018-08-30T11:46:53.136Z,10.53
2018-08-30T11:49:21.499Z,10.43
2018-08-30T11:51:49.864Z,8.38
2018-08-30T11:54:18.644Z,13.35
2018-08-30T11:56:46.975Z,13.62
2018-08-30T11:59:15.357Z,9.90
2018-08-30T12:01:43.693Z,10.63
2018-08-30T12:04:12.186Z,12.53
2018-08-30T12:06:40.553Z,14.05
2018-08-30T12:09:10.084Z,12.28
2018-08-30T12:11:39.764Z,16.25
2018-08-30T12:14:08.128Z,11.60
2018-08-30T12:16:36.473Z,14.68
2018-08-30T12:19:04.961Z,18.67
2018-08-30T12:21:33.293Z,15.38
2018-08-30T12:24:01.689Z,18.60
2018-08-30T12:26:30.036Z,22.58
2018-08-30T12:28:58.469Z,17.15
2018-08-30T12:31:26.863Z,15.78
2018-08-30T12:33:55.219Z,20.32
2018-08-30T12:36:23.598Z,11.63
2018-08-30T12:38:51.924Z,11.10
2018-08-30T12:41:20.350Z,12.90
2018-08-30T12:43:48.705Z,11.88
2018-08-30T12:46:17.036Z,10.28
2018-08-30T12:48:45.412Z,11.15
2018-08-30T12:51:13.858Z,11.22
2018-08-30T12:53:42.252Z,17.30
2018-08-30T12:56:10.634Z,8.40
2018-08-30T12:58:38.982Z,12.47
2018-08-30T13:01:07.411Z,9.83
2018-08-30T13:03:35.736Z,11.97
2018-08-30T13:06:04.220Z,17.35
2018-08-30T13:08:32.648Z,13.70
2018-08-30T13:11:01.056Z,8.83
2018-08-30T13:13:29.379Z,12.55
2018-08-30T13:15:57.647Z,11.53
2018-08-30T13:18:26.092Z,15.83
2018-08-30T13:20:54.442Z,15.90
2018-08-30T13:23:22.765Z,12.90
2018-08-30T13:25:51.375Z,15.40
2018-08-30T13:28:19.846Z,15.50
2018-08-30T13:30:48.118Z,13.25
2018-08-30T13:33:19.904Z,12.35
2018-08-30T13:35:44.885Z,12.82
2018-08-30T13:38:13.348Z,13.30
2018-08-30T13:40:41.866Z,15.25
2018-08-30T13:43:10.195Z,14.13
2018-08-30T13:45:38.431Z,15.88
2018-08-30T13:48:07.199Z,12.53
2018-08-30T13:50:35.592Z,11.75
2018-08-30T13:53:03.936Z,15.43
2018-08-30T13:55:32.219Z,13.13
2018-08-30T13:58:00.604Z,12.70
2018-08-30T14:00:29.451Z,17.73
2018-08-30T14:02:57.180Z,19.55
2018-08-30T14:05:25.653Z,15.15
2018-08-30T14:07:54.239Z,14.25
2018-08-30T14:10:22.875Z,13.95
2018-08-30T14:12:51.095Z,17.25
2018-08-30T14:15:19.681Z,11.70
2018-08-30T14:17:47.581Z,13.08
2018-08-30T14:20:15.908Z,13.88
2018-08-30T14:22:44.412Z,12.18
2018-08-30T14:25:12.677Z,15.88
2018-08-30T14:27:41.117Z,11.85
2018-08-30T14:30:09.444Z,12.25
2018-08-30T14:32:37.824Z,13.55
2018-08-30T14:35:06.223Z,14.83
2018-08-30T14:37:34.582Z,13.38
2018-08-30T14:40:02.959Z,15.30
2018-08-30T14:42:31.391Z,15.93
2018-08-30T14:44:59.702Z,12.60
2018-08-30T14:47:28.181Z,12.98
2018-08-30T14:49:56.487Z,14.28
2018-08-30T14:52:24.871Z,14.47
2018-08-30T14:54:53.660Z,14.50
2018-08-30T14:57:22.040Z,16.52
2018-08-30T14:59:50.376Z,13.83
2018-08-30T15:02:18.867Z,14.87
2018-08-30T15:04:47.177Z,17.15
2018-08-30T15:07:15.552Z,15.10
2018-08-30T15:09:43.912Z,13.55
2018-08-30T15:12:12.320Z,12.30
2018-08-30T15:14:40.668Z,13.00
2018-08-30T15:17:09.113Z,15.88
2018-08-30T15:19:37.424Z,16.30
2018-08-30T15:22:05.995Z,14.33
2018-08-30T15:24:34.285Z,13.75
2018-08-30T15:27:02.708Z,14.68
2018-08-30T15:29:31.109Z,16.97
2018-08-30T15:31:59.535Z,17.90
2018-08-30T15:34:27.797Z,13.85
2018-08-30T15:36:56.187Z,17.00
2018-08-30T15:39:24.553Z,12.63
2018-08-30T15:41:52.924Z,15.00
2018-08-30T15:44:21.284Z,18.60
2018-08-30T15:46:49.648Z,13.35
2018-08-30T15:49:18.025Z,16.05
2018-08-30T15:51:46.403Z,18.25
2018-08-30T15:54:14.738Z,14.80
2018-08-30T15:56:43.212Z,16.90
2018-08-30T15:59:11.639Z,13.38
2018-08-30T16:01:39.995Z,14.35
2018-08-30T16:04:08.311Z,14.00
2018-08-30T16:06:36.706Z,12.50
2018-08-30T16:09:07.668Z,12.55
2018-08-30T16:11:36.271Z,9.13
2018-08-30T16:14:04.543Z,13.22
2018-08-30T16:16:32.916Z,11.10
2018-08-30T16:19:01.279Z,11.75
2018-08-30T16:21:29.618Z,13.03
2018-08-30T16:23:58.029Z,21.73
2018-08-30T16:26:26.381Z,20.20
2018-08-30T16:28:54.764Z,14.73
2018-08-30T16:31:23.189Z,19.87
2018-08-30T16:33:51.561Z,11.38
2018-08-30T16:36:19.922Z,15.03
2018-08-30T16:38:48.304Z,14.53
2018-08-30T16:41:16.685Z,15.72
2018-08-30T16:43:45.068Z,11.38
2018-08-30T16:46:13.418Z,12.80
2018-08-30T16:48:41.800Z,13.00
2018-08-30T16:51:10.158Z,12.18
2018-08-30T16:53:39.545Z,15.43
2018-08-30T16:56:07.951Z,15.88
2018-08-30T16:58:36.361Z,13.58
2018-08-30T17:01:04.767Z,12.15
2018-08-30T17:03:33.148Z,13.08
2018-08-30T17:06:01.485Z,15.80
2018-08-30T17:08:29.886Z,16.05
2018-08-30T17:10:58.219Z,13.58
2018-08-30T17:13:26.643Z,14.30
2018-08-30T17:15:54.945Z,17.48
2018-08-30T17:18:23.319Z,15.30
2018-08-30T17:20:53.327Z,16.82
2018-08-30T17:23:21.749Z,17.32
2018-08-30T17:25:50.113Z,17.15
2018-08-30T17:28:18.564Z,13.50
2018-08-30T17:30:46.922Z,16.12
2018-08-30T17:33:15.392Z,25.65
2018-08-30T17:35:43.769Z,14.25
2018-08-30T17:38:12.140Z,15.65
2018-08-30T17:40:40.657Z,16.50
2018-08-30T17:43:09.021Z,15.70
2018-08-30T17:45:37.484Z,16.55
2018-08-30T17:48:05.996Z,17.40
2018-08-30T17:50:35.463Z,15.13
2018-08-30T17:53:03.843Z,17.23
2018-08-30T17:55:32.282Z,13.53
2018-08-30T17:58:00.760Z,16.80
2018-08-30T18:00:29.153Z,18.62
2018-08-30T18:02:57.539Z,18.52
2018-08-30T18:05:25.977Z,15.55
2018-08-30T18:07:54.361Z,19.23
2018-08-30T18:10:23.133Z,16.65
2018-08-30T18:12:51.502Z,16.27
2018-08-30T18:15:19.888Z,17.48
2018-08-30T18:17:48.225Z,17.75
2018-08-30T18:20:16.604Z,17.15
2018-08-30T18:22:44.979Z,18.45
2018-08-30T18:25:13.333Z,22.90
2018-08-30T18:27:41.668Z,20.43
2018-08-30T18:30:10.645Z,24.85
2018-08-30T18:32:39.062Z,25.23
2018-08-30T18:35:08.933Z,18.73
2018-08-30T18:37:37.404Z,15.15
2018-08-30T18:40:06.660Z,21.68
2018-08-30T18:42:35.020Z,14.98
2018-08-30T18:45:03.410Z,15.83
2018-08-30T18:47:31.764Z,19.75
2018-08-30T18:50:00.376Z,22.87
2018-08-30T18:52:28.725Z,19.42
2018-08-30T18:54:57.084Z,17.73
2018-08-30T18:57:25.420Z,18.52
2018-08-30T18:59:53.792Z,20.30
2018-08-30T19:02:22.181Z,17.90
2018-08-30T19:04:50.548Z,17.00
2018-08-30T19:07:18.891Z,18.87
2018-08-30T19:09:47.249Z,21.50
2018-08-30T19:12:15.580Z,15.60
2018-08-30T19:14:44.036Z,24.05
2018-08-30T19:17:17.824Z,16.85
2018-08-30T19:19:46.196Z,17.70
2018-08-30T19:22:14.568Z,23.15
2018-08-30T19:24:48.324Z,24.00
2018-08-30T19:27:16.676Z,19.55
2018-08-30T19:29:50.388Z,17.57
2018-08-30T19:32:18.755Z,20.95
2018-08-30T19:34:47.148Z,18.45
2018-08-30T19:37:15.496Z,22.80
2018-08-30T19:39:43.848Z,21.90
2018-08-30T19:42:12.237Z,19.98
2018-08-30T19:44:40.592Z,19.55
2018-08-30T19:47:08.972Z,24.70
2018-08-30T19:49:37.315Z,22.02
2018-08-30T19:52:05.773Z,20.80
2018-08-30T19:54:34.128Z,22.67
2018-08-30T19:57:02.500Z,18.45
2018-08-30T19:59:30.844Z,18.02
2018-08-30T20:01:59.221Z,20.17
2018-08-30T20:04:27.628Z,19.92
2018-08-30T20:06:56.021Z,17.75
2018-08-30T20:09:24.395Z,25.70
2018-08-30T20:11:52.768Z,18.17
2018-08-30T20:14:21.115Z,24.15
2018-08-30T20:16:49.488Z,20.72
2018-08-30T20:19:17.828Z,23.35
2018-08-30T20:21:46.229Z,27.15
2018-08-30T20:24:14.617Z,22.90
2018-08-30T20:26:43.012Z,20.77
2018-08-30T20:29:11.349Z,24.90
2018-08-30T20:31:39.727Z,22.40
2018-08-30T20:34:08.092Z,23.00
2018-08-30T20:36:36.469Z,23.55
2018-08-30T20:39:05.517Z,24.65
2018-08-30T20:41:33.895Z,27.40
2018-08-30T20:44:02.240Z,20.55
2018-08-30T20:46:30.674Z,19.65
2018-08-30T20:48:58.996Z,21.15
2018-08-30T20:51:27.416Z,21.35
2018-08-30T20:53:55.744Z,24.45
2018-08-30T20:56:24.257Z,20.55
2018-08-30T20:58:52.600Z,19.62
2018-08-30T21:01:20.980Z,28.40
2018-08-30T21:03:49.348Z,19.52
2018-08-30T21:06:17.784Z,22.10
2018-08-30T21:08:46.144Z,28.23
2018-08-30T21:11:14.511Z,21.82
2018-08-30T21:13:42.856Z,19.40
2018-08-30T21:16:11.235Z,24.05
2018-08-30T21:18:39.576Z,21.65
2018-08-30T21:21:08.001Z,26.35
2018-08-30T21:23:36.340Z,22.65
2018-08-30T21:26:04.945Z,22.70
2018-08-30T21:28:33.341Z,22.77
2018-08-30T21:31:01.712Z,21.93
2018-08-30T21:33:30.132Z,19.73
2018-08-30T21:35:58.509Z,24.60
2018-08-30T21:38:26.948Z,23.02
2018-08-30T21:40:55.300Z,19.75
2018-08-30T21:43:23.729Z,20.40
2018-08-30T21:45:52.122Z,24.75
2018-08-30T21:48:20.501Z,18.73
2018-08-30T21:50:48.864Z,21.93
2018-08-30T21:53:17.273Z,25.43
2018-08-30T21:55:45.600Z,23.77
2018-08-30T21:58:13.968Z,21.75
2018-08-30T22:00:42.376Z,22.35
2018-08-30T22:03:10.771Z,23.60
2018-08-30T22:05:39.116Z,24.15
2018-08-30T22:08:07.507Z,22.67
2018-08-30T22:10:35.884Z,25.97
2018-08-30T22:13:04.307Z,23.85
2018-08-30T22:15:32.649Z,23.07
2018-08-30T22:18:01.028Z,24.87
2018-08-30T22:20:29.367Z,23.20
2018-08-30T22:22:57.808Z,20.05
2018-08-30T22:25:26.157Z,19.62
2018-08-30T22:27:54.544Z,23.62
2018-08-30T22:30:22.897Z,27.32
2018-08-30T22:32:51.300Z,24.50
2018-08-30T22:35:19.700Z,23.95
2018-08-30T22:37:48.088Z,25.65
2018-08-30T22:40:16.500Z,26.15
2018-08-30T22:42:44.892Z,28.65
2018-08-30T22:45:13.271Z,24.37
2018-08-30T22:47:41.774Z,20.60
2018-08-30T22:50:10.136Z,22.52
2018-08-30T22:52:38.536Z,23.75
2018-08-30T22:55:06.922Z,24.40
2018-08-30T22:57:35.313Z,29.15
2018-08-30T23:00:03.854Z,26.35
2018-08-30T23:02:32.206Z,20.48
2018-08-30T23:05:00.593Z,21.15
2018-08-30T23:07:28.944Z,24.00
2018-08-30T23:09:57.308Z,25.00
2018-08-30T23:12:25.660Z,26.93
2018-08-30T23:14:54.069Z,23.32
2018-08-30T23:17:22.431Z,23.92
2018-08-30T23:19:50.845Z,25.48
2018-08-30T23:22:19.207Z,25.80
2018-08-30T23:24:47.615Z,20.65
2018-08-30T23:27:15.984Z,19.92
2018-08-30T23:29:44.352Z,19.48
2018-08-30T23:32:12.693Z,20.55
2018-08-30T23:34:41.081Z,24.30
2018-08-30T23:37:09.548Z,22.10
2018-08-30T23:39:37.921Z,23.02
2018-08-30T23:42:06.265Z,25.10
2018-08-30T23:44:34.631Z,23.02
2018-08-30T23:47:02.996Z,24.95
2018-08-30T23:49:31.373Z,25.08
2018-08-30T23:51:59.712Z,21.50
2018-08-30T23:54:28.185Z,29.63
2018-08-30T23:56:56.545Z,29.35
2018-08-30T23:59:36.166Z,25.88
